Skip Navigation LinksHome page > Weather > Current weather Skip Navigation Links

Current Weather

Honolulu Intl, Honolulu

For information only: do not use for flight planning or navigation.
Latest weather
Observation time Wednesday, November 26, 2014 6:53 PM HST
Local time Wednesday, November 26, 2014 7:17 PM HST
Flight conditions Visual Meteorological Conditions
Winds
Wind direction Northeast (40°)
Wind speed 12 mph
Visibility 10 mi.
Sky condition
Ceiling unlimited
Cloud layer few clouds 2,700 ft.
Cloud layer scattered clouds 4,100 ft.
Temperature 75°F
Dewpoint 60°F
Altimeter 30.04 in.Hg
Derived measurements
Relative humidity 60%
Density altitude 1156 ft.
Sea-level pressure 30.04 in.Hg
Remarks
Automated weather observing station with precipitation discriminator.
METAR PHNL 270453Z 04010KT 10SM FEW027 SCT041 24/16 A3004 RMK AO2 SLP171 T02390156

Settings

Location code

InnerDrive.Weather 4.0.5399.0 Release CLR 4.0.30319.34014
Copyright ©2014 Inner Drive Technology. All rights reserved. Portions Copyright ©1986-2014 David Braverman.

Find weather

Site navigation


Skip Navigation Links

Place info

Page info

PayPal - The safer, easier way to pay online!

Return home.

Copyright ©2014 Inner Drive Technology. Purveyors of fine, hand-crafted computer software. Page printed 2014-11-27T05:17:13 UTC.